createdAt,value
2019-05-01T00:00:19.371Z,51.67
2019-05-01T00:03:05.722Z,50.70
2019-05-01T00:05:38.560Z,49.77
2019-05-01T00:08:09.961Z,51.97
2019-05-01T00:10:38.355Z,51.63
2019-05-01T00:13:08.389Z,55.00
2019-05-01T00:15:38.752Z,51.07
2019-05-01T00:18:07.217Z,55.30
2019-05-01T00:20:35.682Z,54.33
2019-05-01T00:23:04.148Z,55.73
2019-05-01T00:25:32.549Z,56.63
2019-05-01T00:28:01.012Z,56.77
2019-05-01T00:30:31.057Z,55.70
2019-05-01T00:32:59.433Z,54.80
2019-05-01T00:35:27.832Z,55.07
2019-05-01T00:37:56.218Z,53.90
2019-05-01T00:40:24.612Z,53.47
2019-05-01T00:42:54.041Z,55.40
2019-05-01T00:45:22.436Z,55.27
2019-05-01T00:47:50.843Z,55.93
2019-05-01T00:50:19.230Z,56.77
2019-05-01T00:52:47.616Z,57.13
2019-05-01T00:55:34.569Z,59.07
2019-05-01T00:58:21.017Z,54.40
2019-05-01T01:00:51.054Z,50.80
2019-05-01T01:03:19.448Z,54.07
2019-05-01T01:05:47.852Z,55.60
2019-05-01T01:08:30.186Z,62.17
2019-05-01T01:10:58.657Z,56.87
2019-05-01T01:13:27.044Z,59.47
2019-05-01T01:15:55.497Z,58.63
2019-05-01T01:18:23.896Z,56.33
2019-05-01T01:20:52.356Z,56.40
2019-05-01T01:23:20.900Z,55.87
2019-05-01T01:25:49.360Z,56.63
2019-05-01T01:28:18.584Z,56.53
2019-05-01T01:30:55.971Z,55.83
2019-05-01T01:33:17.252Z,54.40
2019-05-01T01:35:45.641Z,55.47
2019-05-01T01:38:14.044Z,56.23
2019-05-01T01:40:42.660Z,55.90
2019-05-01T01:43:24.495Z,52.20
2019-05-01T01:45:54.592Z,56.57
2019-05-01T01:48:23.397Z,56.33
2019-05-01T01:50:52.460Z,57.67
2019-05-01T01:53:22.889Z,56.53
2019-05-01T01:55:53.572Z,55.10
2019-05-01T01:58:22.506Z,59.13
2019-05-01T02:00:55.238Z,57.43
2019-05-01T02:03:25.260Z,58.50
2019-05-01T02:05:54.196Z,54.93
2019-05-01T02:08:22.592Z,58.43
2019-05-01T02:10:51.065Z,57.63
2019-05-01T02:13:19.453Z,58.57
2019-05-01T02:15:53.195Z,58.03
2019-05-01T02:18:21.736Z,57.63
2019-05-01T02:20:50.135Z,56.40
2019-05-01T02:23:18.540Z,57.37
2019-05-01T02:25:46.929Z,62.10
2019-05-01T02:28:26.112Z,57.23
2019-05-01T02:31:27.348Z,59.93
2019-05-01T02:33:47.290Z,59.47
2019-05-01T02:36:19.075Z,55.90
2019-05-01T02:38:50.268Z,54.67
2019-05-01T02:41:20.017Z,58.40
2019-05-01T02:43:51.481Z,60.27
2019-05-01T02:46:21.515Z,60.00
2019-05-01T02:49:04.690Z,60.77
2019-05-01T02:51:34.319Z,58.87
2019-05-01T02:54:02.841Z,62.70
2019-05-01T02:56:35.912Z,67.43
2019-05-01T02:59:06.840Z,67.87
2019-05-01T03:01:46.330Z,62.10
2019-05-01T03:04:07.699Z,65.70
2019-05-01T03:06:38.522Z,68.27
2019-05-01T03:09:09.152Z,71.23
2019-05-01T03:11:39.725Z,71.27
2019-05-01T03:14:11.254Z,69.83
2019-05-01T03:16:41.658Z,72.53
2019-05-01T03:19:22.743Z,70.97
2019-05-01T03:21:53.652Z,70.07
2019-05-01T03:24:25.276Z,69.87
2019-05-01T03:26:54.612Z,68.80
2019-05-01T03:29:24.033Z,68.73
2019-05-01T03:32:14.573Z,67.73
2019-05-01T03:34:22.617Z,68.00
2019-05-01T03:36:51.164Z,67.10
2019-05-01T03:39:19.740Z,67.40
2019-05-01T03:41:48.602Z,70.27
2019-05-01T03:44:18.014Z,70.17
2019-05-01T03:46:46.477Z,71.43
2019-05-01T03:49:15.140Z,67.93
2019-05-01T03:51:43.913Z,72.07
2019-05-01T03:54:12.773Z,70.07
2019-05-01T03:56:41.632Z,69.57
2019-05-01T03:59:10.166Z,71.50
2019-05-01T04:01:46.845Z,69.57
2019-05-01T04:04:20.254Z,72.03
2019-05-01T04:06:49.480Z,73.47
2019-05-01T04:09:18.714Z,73.13
2019-05-01T04:11:47.373Z,69.57
2019-05-01T04:14:16.033Z,69.00
2019-05-01T04:16:47.593Z,68.10
2019-05-01T04:19:17.175Z,68.17
2019-05-01T04:21:53.626Z,68.80
2019-05-01T04:24:23.654Z,70.80
2019-05-01T04:26:52.705Z,70.17
2019-05-01T04:29:24.638Z,75.60
2019-05-01T04:31:54.788Z,76.80
2019-05-01T04:34:39.843Z,78.23
2019-05-01T04:37:13.209Z,73.87
2019-05-01T04:39:41.851Z,80.50
2019-05-01T04:42:11.086Z,80.23
2019-05-01T04:44:39.936Z,75.27
2019-05-01T04:47:08.322Z,76.73
2019-05-01T04:49:36.789Z,73.17
2019-05-01T04:52:05.318Z,77.27
2019-05-01T04:54:33.772Z,78.43
2019-05-01T04:57:02.245Z,79.87
2019-05-01T04:59:30.768Z,76.13
2019-05-01T05:02:05.116Z,70.53
2019-05-01T05:04:34.633Z,67.77
2019-05-01T05:07:03.021Z,68.73
2019-05-01T05:09:44.112Z,67.57
2019-05-01T05:12:20.284Z,65.87
2019-05-01T05:15:12.284Z,62.20
2019-05-01T05:17:42.387Z,60.10
2019-05-01T05:20:10.784Z,60.30
2019-05-01T05:22:39.241Z,60.67
2019-05-01T05:25:07.699Z,58.50
2019-05-01T05:27:36.936Z,56.37
2019-05-01T05:30:06.193Z,53.57
2019-05-01T05:32:36.690Z,52.37
2019-05-01T05:35:07.212Z,50.83
2019-05-01T05:37:57.614Z,49.60
2019-05-01T05:40:29.552Z,45.40
2019-05-01T05:42:58.093Z,44.07
2019-05-01T05:45:27.132Z,41.50
2019-05-01T05:47:57.458Z,42.70
2019-05-01T05:50:27.637Z,42.57
2019-05-01T05:55:55.177Z,40.63
2019-05-01T05:58:30.125Z,40.23
2019-05-01T06:01:07.829Z,40.80
2019-05-01T06:03:58.240Z,39.73
2019-05-01T06:07:10.429Z,39.83
2019-05-01T06:09:44.722Z,38.70
2019-05-01T06:12:21.689Z,39.17
2019-05-01T06:14:54.640Z,39.23
2019-05-01T06:17:28.538Z,38.17
2019-05-01T06:20:01.888Z,40.17
2019-05-01T06:22:49.612Z,36.47
2019-05-01T06:25:25.102Z,37.07
2019-05-01T06:27:53.284Z,37.97
2019-05-01T06:30:21.741Z,37.40
2019-05-01T06:32:50.134Z,37.20
2019-05-01T06:35:19.184Z,36.67
2019-05-01T06:38:08.704Z,38.40
2019-05-01T06:40:52.969Z,35.97
2019-05-01T06:43:32.580Z,34.53
2019-05-01T06:46:12.161Z,37.23
2019-05-01T06:49:03.332Z,34.53
2019-05-01T06:51:34.520Z,38.07
2019-05-01T06:54:11.212Z,35.90
2019-05-01T06:56:40.028Z,36.07
2019-05-01T06:59:10.654Z,35.27
2019-05-01T07:01:40.116Z,36.33
2019-05-01T07:04:08.513Z,34.97
2019-05-01T07:06:38.638Z,33.57
2019-05-01T07:09:11.735Z,36.23
2019-05-01T07:11:42.523Z,36.80
2019-05-01T07:14:15.786Z,36.07
2019-05-01T07:16:41.340Z,33.20
2019-05-01T07:19:10.961Z,38.13
2019-05-01T07:21:39.431Z,35.60
2019-05-01T07:24:07.960Z,36.23
2019-05-01T07:26:36.368Z,34.23
2019-05-01T07:29:09.934Z,34.37
2019-05-01T07:31:39.385Z,33.23
2019-05-01T07:34:16.339Z,33.40
2019-05-01T07:36:38.105Z,34.43
2019-05-01T07:39:09.797Z,34.13
2019-05-01T07:41:39.375Z,33.70
2019-05-01T07:44:18.317Z,34.50
2019-05-01T07:46:57.551Z,32.23
2019-05-01T07:49:52.631Z,32.53
2019-05-01T07:52:24.228Z,32.43
2019-05-01T07:54:54.760Z,29.50
2019-05-01T07:57:23.334Z,30.33
2019-05-01T07:59:52.320Z,32.20
2019-05-01T08:02:20.862Z,31.83
2019-05-01T08:04:49.352Z,31.43
2019-05-01T08:07:17.745Z,31.37
2019-05-01T08:09:50.298Z,29.77
2019-05-01T08:12:18.862Z,31.33
2019-05-01T08:14:47.794Z,30.23
2019-05-01T08:17:19.844Z,31.00
2019-05-01T08:19:50.077Z,30.60
2019-05-01T08:22:25.889Z,29.37
2019-05-01T08:24:58.796Z,30.43
2019-05-01T08:27:31.985Z,30.50
2019-05-01T08:30:02.244Z,29.00
2019-05-01T08:32:39.244Z,32.43
2019-05-01T08:35:09.021Z,29.27
2019-05-01T08:37:37.454Z,29.87
2019-05-01T08:40:07.500Z,29.93
2019-05-01T08:42:37.696Z,30.83
2019-05-01T08:45:08.854Z,29.87
2019-05-01T08:47:41.848Z,29.30
2019-05-01T08:50:19.819Z,30.73
2019-05-01T08:52:48.778Z,29.93
2019-05-01T08:55:17.292Z,29.63
2019-05-01T08:57:45.681Z,30.17
2019-05-01T09:00:15.700Z,30.90
2019-05-01T09:02:44.106Z,29.90
2019-05-01T09:05:27.613Z,31.07
2019-05-01T09:07:42.917Z,31.80
2019-05-01T09:10:11.621Z,33.57
2019-05-01T09:12:42.684Z,32.77
2019-05-01T09:15:12.686Z,35.07
2019-05-01T09:17:40.467Z,33.73
2019-05-01T09:20:08.929Z,35.13
2019-05-01T09:22:37.433Z,35.63
2019-05-01T09:25:07.718Z,32.27
2019-05-01T09:27:37.900Z,34.53
2019-05-01T09:30:11.731Z,33.53
2019-05-01T09:32:40.108Z,32.97
2019-05-01T09:35:22.984Z,35.57
2019-05-01T09:37:51.366Z,39.20
2019-05-01T09:40:22.867Z,41.47
2019-05-01T09:42:54.845Z,33.37
2019-05-01T09:45:21.671Z,35.60
2019-05-01T09:47:51.780Z,35.23
2019-05-01T09:50:20.311Z,36.40
2019-05-01T09:52:59.749Z,35.90
2019-05-01T09:55:27.843Z,36.33
2019-05-01T09:57:56.313Z,34.93
2019-05-01T10:00:26.627Z,33.00
2019-05-01T10:02:55.013Z,35.53
2019-05-01T10:05:28.990Z,35.10
2019-05-01T10:07:53.892Z,34.20
2019-05-01T10:10:24.847Z,36.93
2019-05-01T10:12:52.672Z,36.13
2019-05-01T10:15:21.068Z,36.33
2019-05-01T10:17:49.477Z,36.03
2019-05-01T10:20:17.873Z,34.77
2019-05-01T10:22:46.281Z,34.60
2019-05-01T10:25:14.753Z,33.43
2019-05-01T10:27:44.870Z,32.87
2019-05-01T10:30:21.904Z,34.47
2019-05-01T10:33:06.977Z,34.30
2019-05-01T10:35:50.734Z,34.50
2019-05-01T10:38:19.461Z,34.83
2019-05-01T10:40:47.865Z,33.53
2019-05-01T10:43:16.793Z,35.10
2019-05-01T10:45:45.291Z,31.93
2019-05-01T10:48:13.688Z,34.03
2019-05-01T10:50:42.271Z,35.27
2019-05-01T10:53:10.663Z,33.60
2019-05-01T10:55:39.069Z,35.27
2019-05-01T10:58:07.466Z,34.47
2019-05-01T11:00:37.496Z,35.83
2019-05-01T11:03:05.909Z,34.97
2019-05-01T11:05:34.317Z,34.83
2019-05-01T11:08:02.705Z,35.70
2019-05-01T11:10:31.109Z,35.10
2019-05-01T11:12:59.527Z,35.93
2019-05-01T11:15:27.917Z,35.83
2019-05-01T11:17:56.336Z,34.70
2019-05-01T11:20:24.740Z,35.77
2019-05-01T11:22:53.137Z,35.70
2019-05-01T11:25:21.677Z,37.27
2019-05-01T11:27:50.253Z,36.03
2019-05-01T11:30:19.450Z,37.27
2019-05-01T11:32:49.494Z,36.67
2019-05-01T11:35:36.112Z,37.40
2019-05-01T11:38:12.084Z,36.73
2019-05-01T11:40:42.113Z,35.60
2019-05-01T11:43:10.536Z,37.70
2019-05-01T11:45:38.933Z,38.63
2019-05-01T11:48:07.329Z,41.90
2019-05-01T11:50:35.786Z,39.73
2019-05-01T11:53:04.319Z,39.57
2019-05-01T11:55:32.780Z,41.17
2019-05-01T11:58:01.191Z,39.97
2019-05-01T12:00:29.585Z,42.87
2019-05-01T12:02:57.977Z,43.43
2019-05-01T12:05:26.385Z,40.50
2019-05-01T12:07:54.775Z,42.33
2019-05-01T12:10:23.173Z,41.63
2019-05-01T12:12:51.586Z,42.63
2019-05-01T12:15:21.421Z,43.83
2019-05-01T12:17:51.491Z,44.47
2019-05-01T12:20:22.792Z,41.63
2019-05-01T12:22:51.731Z,43.80
2019-05-01T12:25:20.742Z,43.30
2019-05-01T12:27:49.133Z,43.47
2019-05-01T12:30:19.573Z,42.23
2019-05-01T12:32:47.975Z,44.43
2019-05-01T12:35:16.437Z,41.83
2019-05-01T12:37:44.850Z,42.33
2019-05-01T12:40:16.022Z,42.30
2019-05-01T12:42:44.487Z,41.53
2019-05-01T12:45:15.605Z,41.57
2019-05-01T12:47:51.456Z,43.47
2019-05-01T12:50:21.379Z,42.37
2019-05-01T12:53:07.465Z,42.57
2019-05-01T12:55:40.413Z,41.90
2019-05-01T12:58:08.849Z,43.07
2019-05-01T13:00:48.184Z,42.17
2019-05-01T13:03:16.641Z,41.93
2019-05-01T13:05:45.116Z,40.08
2019-05-01T13:08:13.573Z,41.58
2019-05-01T13:10:41.977Z,39.30
2019-05-01T13:13:11.342Z,42.38
2019-05-01T13:15:40.458Z,42.50
2019-05-01T13:18:08.861Z,43.87
2019-05-01T13:20:37.271Z,42.90
2019-05-01T13:23:05.740Z,43.60
2019-05-01T13:25:34.129Z,41.63
2019-05-01T13:28:20.269Z,43.02
2019-05-01T13:30:50.374Z,43.73
2019-05-01T13:33:18.774Z,45.88
2019-05-01T13:35:47.164Z,43.85
2019-05-01T13:38:15.571Z,44.67
2019-05-01T13:40:44.032Z,44.63
2019-05-01T13:43:12.437Z,42.13
2019-05-01T13:45:40.863Z,44.70
2019-05-01T13:48:09.236Z,43.75
2019-05-01T13:50:37.628Z,44.85
2019-05-01T13:53:06.131Z,44.53
2019-05-01T13:55:34.529Z,47.98
2019-05-01T13:58:02.924Z,43.52
2019-05-01T14:00:31.361Z,43.83
2019-05-01T14:02:59.733Z,44.73
2019-05-01T14:05:28.193Z,46.25
2019-05-01T14:07:56.593Z,43.02
2019-05-01T14:10:25.170Z,45.48
2019-05-01T14:12:54.038Z,43.90
2019-05-01T14:15:22.452Z,44.05
2019-05-01T14:17:50.846Z,44.98
2019-05-01T14:20:35.994Z,46.90
2019-05-01T14:23:20.766Z,45.83
2019-05-01T14:26:06.266Z,48.13
2019-05-01T14:28:36.452Z,46.45
2019-05-01T14:31:05.896Z,47.83
2019-05-01T14:33:35.775Z,49.45
2019-05-01T14:36:05.230Z,44.42
2019-05-01T14:38:33.723Z,46.80
2019-05-01T14:41:02.165Z,46.90
2019-05-01T14:43:30.573Z,46.28
2019-05-01T14:45:58.968Z,45.78
2019-05-01T14:48:27.377Z,45.58
2019-05-01T14:50:55.780Z,49.53
2019-05-01T14:53:24.177Z,49.38
2019-05-01T14:55:52.579Z,49.33
2019-05-01T14:58:20.994Z,50.17
2019-05-01T15:00:49.390Z,51.50
2019-05-01T15:03:17.786Z,51.15
2019-05-01T15:05:46.234Z,52.33
2019-05-01T15:08:14.669Z,51.77
2019-05-01T15:10:43.060Z,52.13
2019-05-01T15:13:15.576Z,47.95
2019-05-01T15:15:45.608Z,49.75
2019-05-01T15:18:33.437Z,50.73
2019-05-01T15:21:01.837Z,48.50
2019-05-01T15:23:30.245Z,49.77
2019-05-01T15:25:59.017Z,49.55
2019-05-01T15:28:27.397Z,49.18
2019-05-01T15:30:55.788Z,49.05
2019-05-01T15:33:24.201Z,49.83
2019-05-01T15:35:52.599Z,52.08
2019-05-01T15:38:21.000Z,51.42
2019-05-01T15:40:54.231Z,51.75
2019-05-01T15:43:24.262Z,51.77
2019-05-01T15:45:52.664Z,50.58
2019-05-01T15:48:21.063Z,47.85
2019-05-01T15:50:50.483Z,49.55
2019-05-01T15:53:19.668Z,50.83
2019-05-01T15:55:48.079Z,50.35
2019-05-01T15:58:16.470Z,50.55
2019-05-01T16:00:44.946Z,51.88
2019-05-01T16:03:13.369Z,50.73
2019-05-01T16:05:41.762Z,50.08
2019-05-01T16:08:10.185Z,49.63
2019-05-01T16:10:40.353Z,50.48
2019-05-01T16:13:08.754Z,50.05
2019-05-01T16:15:37.293Z,50.40
2019-05-01T16:18:06.765Z,51.25
2019-05-01T16:20:35.184Z,49.98
2019-05-01T16:23:03.581Z,52.33
2019-05-01T16:25:31.972Z,51.07
2019-05-01T16:28:00.380Z,50.53
2019-05-01T16:30:28.845Z,49.70
2019-05-01T16:32:57.241Z,51.00
2019-05-01T16:35:25.644Z,49.33
2019-05-01T16:37:55.680Z,48.70
2019-05-01T16:40:37.791Z,50.47
2019-05-01T16:43:07.920Z,50.33
2019-05-01T16:45:36.384Z,49.20
2019-05-01T16:48:05.561Z,48.03
2019-05-01T16:50:33.953Z,49.37
2019-05-01T16:53:02.494Z,48.77
2019-05-01T16:55:30.999Z,50.70
2019-05-01T16:57:59.398Z,51.00
2019-05-01T17:00:56.478Z,50.63
2019-05-01T17:03:29.333Z,52.33
2019-05-01T17:06:16.052Z,49.20
2019-05-01T17:09:02.612Z,50.20
2019-05-01T17:11:32.648Z,49.50
2019-05-01T17:14:01.200Z,51.97
2019-05-01T17:16:29.657Z,50.97
2019-05-01T17:18:58.049Z,50.40
2019-05-01T17:21:26.466Z,50.40
2019-05-01T17:23:54.920Z,50.80
2019-05-01T17:26:23.325Z,50.33
2019-05-01T17:28:51.725Z,49.87
2019-05-01T17:31:20.190Z,50.03
2019-05-01T17:33:50.989Z,49.57
2019-05-01T17:36:18.740Z,48.33
2019-05-01T17:38:49.835Z,47.43
2019-05-01T17:41:17.274Z,46.63
2019-05-01T17:43:49.331Z,48.63
2019-05-01T17:46:15.796Z,48.90
2019-05-01T17:48:44.193Z,47.40
2019-05-01T17:51:12.601Z,49.43
2019-05-01T17:53:40.992Z,50.07
2019-05-01T17:56:10.209Z,47.93
2019-05-01T17:58:39.508Z,45.80
2019-05-01T18:01:27.704Z,46.23
2019-05-01T18:03:57.801Z,46.30
2019-05-01T18:06:27.834Z,44.77
2019-05-01T18:09:02.829Z,44.87
2019-05-01T18:11:26.430Z,47.27
2019-05-01T18:13:54.828Z,47.63
2019-05-01T18:16:23.294Z,47.17
2019-05-01T18:18:51.680Z,45.83
2019-05-01T18:21:20.088Z,45.20
2019-05-01T18:24:02.155Z,45.93
2019-05-01T18:26:48.485Z,44.87
2019-05-01T18:29:24.494Z,47.07
2019-05-01T18:31:52.888Z,46.40
2019-05-01T18:34:21.276Z,47.70
2019-05-01T18:36:54.947Z,47.70
2019-05-01T18:39:32.053Z,48.63
2019-05-01T18:42:02.853Z,48.40
2019-05-01T18:44:31.390Z,48.20
2019-05-01T18:46:59.849Z,54.70
2019-05-01T18:49:28.265Z,51.47
2019-05-01T18:51:56.669Z,52.80
2019-05-01T18:54:25.078Z,54.90
2019-05-01T18:56:54.771Z,54.97
2019-05-01T18:59:23.805Z,53.77
2019-05-01T19:01:52.209Z,51.33
2019-05-01T19:04:23.597Z,51.67
2019-05-01T19:06:50.784Z,53.93
2019-05-01T19:09:29.363Z,54.60
2019-05-01T19:11:49.293Z,54.27
2019-05-01T19:14:23.430Z,55.47
2019-05-01T19:16:49.524Z,53.37
2019-05-01T19:19:17.932Z,55.43
2019-05-01T19:21:48.401Z,55.37
2019-05-01T19:24:18.297Z,55.27
2019-05-01T19:26:47.464Z,54.87
2019-05-01T19:29:15.859Z,56.80
2019-05-01T19:31:44.349Z,56.47
2019-05-01T19:34:12.783Z,59.33
2019-05-01T19:36:45.089Z,58.07
2019-05-01T19:39:12.871Z,59.73
2019-05-01T19:41:43.612Z,58.83
2019-05-01T19:44:13.923Z,62.53
2019-05-01T19:46:42.081Z,62.30
2019-05-01T19:49:10.586Z,64.80
2019-05-01T19:51:39.026Z,63.70
2019-05-01T19:54:07.423Z,65.70
2019-05-01T19:56:35.822Z,66.03
2019-05-01T19:59:04.284Z,72.17
2019-05-01T20:01:32.829Z,68.33
2019-05-01T20:04:01.311Z,68.57
2019-05-01T20:06:29.714Z,68.87
2019-05-01T20:08:58.166Z,68.37
2019-05-01T20:11:26.561Z,68.13
2019-05-01T20:13:54.957Z,72.87
2019-05-01T20:16:23.366Z,69.33
2019-05-01T20:18:51.825Z,67.30
2019-05-01T20:21:20.231Z,71.67
2019-05-01T20:23:48.626Z,71.47
2019-05-01T20:26:17.008Z,72.00
2019-05-01T20:28:47.108Z,68.50
2019-05-01T20:31:15.518Z,71.87
2019-05-01T20:33:44.546Z,71.43
2019-05-01T20:36:13.708Z,70.73
2019-05-01T20:38:42.104Z,70.83
2019-05-01T20:41:15.899Z,71.60
2019-05-01T20:43:43.606Z,72.80
2019-05-01T20:46:10.877Z,72.73
2019-05-01T20:48:39.270Z,72.77
2019-05-01T20:51:07.665Z,71.83
2019-05-01T20:53:36.073Z,75.27
2019-05-01T20:56:18.189Z,74.60
2019-05-01T20:58:46.592Z,74.40
2019-05-01T21:01:15.056Z,73.53
2019-05-01T21:03:45.088Z,75.53
2019-05-01T21:06:15.138Z,75.97
2019-05-01T21:08:45.177Z,74.83
2019-05-01T21:11:15.193Z,74.03
2019-05-01T21:13:43.592Z,74.00
2019-05-01T21:16:11.991Z,73.67
2019-05-01T21:18:40.390Z,73.97
2019-05-01T21:21:08.783Z,71.40
2019-05-01T21:23:37.175Z,69.87
2019-05-01T21:26:05.586Z,70.37
2019-05-01T21:28:34.159Z,70.03
2019-05-01T21:31:03.825Z,70.63
2019-05-01T21:33:33.896Z,71.87
2019-05-01T21:36:04.871Z,73.10
2019-05-01T21:38:33.176Z,72.03
2019-05-01T21:41:02.797Z,74.40
2019-05-01T21:43:33.172Z,74.67
2019-05-01T21:46:03.878Z,76.77
2019-05-01T21:48:33.488Z,73.40
2019-05-01T21:51:03.433Z,72.93
2019-05-01T21:53:32.844Z,70.20
2019-05-01T21:56:02.198Z,71.33
2019-05-01T21:58:34.765Z,73.17
2019-05-01T22:01:02.224Z,71.20
2019-05-01T22:03:30.639Z,72.03
2019-05-01T22:05:59.033Z,76.03
2019-05-01T22:08:27.557Z,77.00
2019-05-01T22:10:57.502Z,75.03
2019-05-01T22:13:26.161Z,73.93
2019-05-01T22:15:59.047Z,72.87
2019-05-01T22:18:41.190Z,72.40
2019-05-01T22:21:11.285Z,70.40
2019-05-01T22:23:58.206Z,70.60
2019-05-01T22:26:28.236Z,69.03
2019-05-01T22:29:01.232Z,69.00
2019-05-01T22:31:37.140Z,70.80
2019-05-01T22:34:22.060Z,73.30
2019-05-01T22:36:50.521Z,75.13
2019-05-01T22:39:20.559Z,75.00
2019-05-01T22:41:48.957Z,77.20
2019-05-01T22:44:17.848Z,76.27
2019-05-01T22:47:10.191Z,74.70
2019-05-01T22:49:37.135Z,74.63
2019-05-01T22:52:05.540Z,75.67
2019-05-01T22:54:33.934Z,76.67
2019-05-01T22:57:02.318Z,77.03
2019-05-01T22:59:30.717Z,78.50
2019-05-01T23:02:17.280Z,74.70
2019-05-01T23:04:48.301Z,72.73
2019-05-01T23:07:16.840Z,74.30
2019-05-01T23:09:46.097Z,75.03
2019-05-01T23:12:14.484Z,76.80
2019-05-01T23:14:42.873Z,77.50
2019-05-01T23:17:18.385Z,78.17
2019-05-01T23:19:46.774Z,80.53
2019-05-01T23:22:15.160Z,82.80
2019-05-01T23:24:43.569Z,81.13
2019-05-01T23:27:11.956Z,87.57
2019-05-01T23:29:40.597Z,86.47
2019-05-01T23:32:08.997Z,88.67
2019-05-01T23:34:37.384Z,91.53
2019-05-01T23:37:06.725Z,93.23
2019-05-01T23:39:40.823Z,91.63
2019-05-01T23:42:05.312Z,95.13
2019-05-01T23:44:33.702Z,95.93
2019-05-01T23:47:02.085Z,96.87
2019-05-01T23:49:30.486Z,98.73
2019-05-01T23:52:03.307Z,97.10
2019-05-01T23:54:28.992Z,96.90
2019-05-01T23:56:57.642Z,101.23
2019-05-01T23:59:26.049Z,97.73
